Time;durP1;ratioP1;P1;durP2;ratioP2;P2;SDS_P1;SDS_P2;PMS_P1;PMS_P2;Temp;Humidity;BMP_temperature;BMP_pressure;BME280_temperature;BME280_humidity;BME280_pressure;Samples;Min_cycle;Max_cycle;Signal;HPM_P1;HPM_P2
2022/03/23 00:00:04;;;;;;;;;;;;;;;;;;352493;28;1663;-72
2022/03/23 00:00:14;;;;;;;;;;;;;;;;;;352842;28;908;-72
2022/03/23 00:00:26;;;;;;;;;;;;;;;;;;352864;28;829;-72
2022/03/23 00:00:36;;;;;;;;;;;;;;;;;;352832;28;806;-72
2022/03/23 00:00:46;;;;;;;;;;;;;;;;;;351935;28;1792;-72
2022/03/23 00:00:57;;;;;;;;;;;;;;;;;;351788;28;1823;-72
2022/03/23 00:01:07;;;;;;;;;;;;;;;;;;352859;28;849;-72
2022/03/23 00:01:17;;;;;;;;;;;;;;;;;;352838;28;897;-72
2022/03/23 00:01:27;;;;;;;;;;;;;;;;;;352856;28;834;-72
2022/03/23 00:01:38;;;;;;;;;;;;;;;;;;351682;28;920;-73
2022/03/23 00:01:48;;;;;;;;;;;;;;;;;;350116;28;968;-72
2022/03/23 00:01:58;;;;;;;;;;;;;;;;;;350061;28;1008;-72
2022/03/23 00:02:08;;;;;;;;;;;;;;;;;;350128;28;962;-72
2022/03/23 00:02:19;;;;;;;;;;;;;;;;;;350116;28;889;-72
2022/03/23 00:02:29;;;;;;;;;;;;;;;;;;350060;28;917;-72
2022/03/23 00:02:39;;;;;;;;;;;;;;;;;;350078;28;866;-72
2022/03/23 00:02:49;;;;;;;;;;;;;;;;;;350094;28;977;-72
2022/03/23 00:03:00;;;;;;;;;;;;;;;;;;350121;28;884;-72
2022/03/23 00:03:10;;;;;;;;;;;;;;;;;;350075;28;1600;-72
2022/03/23 00:03:20;;;;;;;;;;;;;;;;;;350081;28;862;-72
2022/03/23 00:03:31;;;;;;;;;;;;;;;;;;350106;28;905;-72
2022/03/23 00:03:41;;;;;;;;;;;;;;;;;;350072;28;820;-72
2022/03/23 00:03:52;;;;;;;;;;;;;;;;;;350106;28;940;-72
2022/03/23 00:04:02;;;;;;;;;;;;;;;;;;350123;28;908;-72
2022/03/23 00:04:12;;;;;;;;;;;;;;;;;;350006;28;1022;-73
2022/03/23 00:04:23;;;;;;;;;;;;;;;;;;350107;28;956;-72
2022/03/23 00:04:33;;;;;;;;;;;;;;;;;;350124;28;908;-72
2022/03/23 00:04:43;;;;;;;;;;;;;;;;;;350080;28;901;-72
2022/03/23 00:04:53;;;;;;;;;;;;;;;;;;350148;28;804;-73
2022/03/23 00:05:04;;;;;;;;;;;;;;;;;;350081;28;845;-73
2022/03/23 00:05:17;;;;;;;;;;;;;;;;;;350033;28;1690;-72
2022/03/23 00:05:28;;;;;;;;;;;;;;;;;;350121;28;948;-72
2022/03/23 00:05:39;;;;;;;;;;;;;;;;;;350075;28;1189;-73
2022/03/23 00:05:49;;;;;;;;;;;;;;;;;;350063;28;988;-72
2022/03/23 00:05:59;;;;;;;;;;;;;;;;;;350089;28;896;-72
2022/03/23 00:06:12;;;;;;;;;;;;;;;;;;350050;28;1134;-72
2022/03/23 00:06:22;;;;;;;;;;;;;;;;;;350135;28;853;-72
2022/03/23 00:06:33;;;;;;;;;;;;;;;;;;349985;28;1022;-72
2022/03/23 00:06:44;;;;;;;;;;;;;;;;;;350109;28;1011;-72
2022/03/23 00:06:54;;;;;;;;;;;;;;;;;;350092;28;929;-73
2022/03/23 00:07:05;;;;;;;;;;;;;;;;;;350064;28;987;-73
2022/03/23 00:07:15;;;;;;;;;;;;;;;;;;350136;28;873;-72
2022/03/23 00:07:25;;;;;;;;;;;;;;;;;;350454;28;1473;-72
2022/03/23 00:07:36;;;;;;;;;;;;;;;;;;350533;28;1533;-72
2022/03/23 00:07:46;;;;;;;;;;;;;;;;;;350170;28;794;-72
2022/03/23 00:07:56;;;;;;;;;;;;;;;;;;350255;28;1761;-73
2022/03/23 00:08:06;;;;;;;;;;;;;;;;;;350236;28;1764;-72
2022/03/23 00:08:17;;;;;;;;;;;;;;;;;;351515;28;909;-72
2022/03/23 00:08:27;;;;;;;;;;;;;;;;;;351493;28;992;-72
2022/03/23 00:08:37;;;;;;;;;;;;;;;;;;351517;28;846;-72
2022/03/23 00:08:49;;;;;;;;;;;;;;;;;;354152;27;1289;-72
2022/03/23 00:09:00;;;;;;;;;;;;;;;;;;354100;27;936;-72
2022/03/23 00:09:12;;;;;;;;;;;;;;;;;;354267;27;786;-72
2022/03/23 00:09:22;;;;;;;;;;;;;;;;;;353798;27;1561;-72
2022/03/23 00:09:32;;;;;;;;;;;;;;;;;;354232;27;956;-72
2022/03/23 00:09:43;;;;;;;;;;;;;;;;;;354242;27;951;-72
2022/03/23 00:09:53;;;;;;;;;;;;;;;;;;354140;27;1063;-73
2022/03/23 00:10:04;;;;;;;;;;;;;;;;;;354223;27;900;-72
2022/03/23 00:10:14;;;;;;;;;;;;;;;;;;354247;27;920;-73
2022/03/23 00:10:24;;;;;;;;;;;;;;;;;;354189;27;903;-72
2022/03/23 00:10:35;;;;;;;;;;;;;;;;;;353966;27;981;-73
2022/03/23 00:10:45;;;;;;;;;;;;;;;;;;352428;27;920;-72
2022/03/23 00:10:56;;;;;;;;;;;;;;;;;;351492;28;810;-73
2022/03/23 00:11:06;;;;;;;;;;;;;;;;;;351336;28;2053;-72
2022/03/23 00:11:17;;;;;;;;;;;;;;;;;;351468;28;1639;-72
2022/03/23 00:11:27;;;;;;;;;;;;;;;;;;351471;28;936;-72
2022/03/23 00:11:38;;;;;;;;;;;;;;;;;;351504;28;915;-72
2022/03/23 00:11:48;;;;;;;;;;;;;;;;;;351375;28;1148;-72
2022/03/23 00:11:58;;;;;;;;;;;;;;;;;;351463;28;929;-73
2022/03/23 00:12:09;;;;;;;;;;;;;;;;;;351490;28;798;-73
2022/03/23 00:12:20;;;;;;;;;;;;;;;;;;351415;28;1049;-72
2022/03/23 00:12:30;;;;;;;;;;;;;;;;;;351485;28;876;-73
2022/03/23 00:12:42;;;;;;;;;;;;;;;;;;351492;28;900;-72
2022/03/23 00:12:57;;;;;;;;;;;;;;;;;;351533;28;793;-72
2022/03/23 00:13:07;;;;;;;;;;;;;;;;;;351408;28;941;-72
2022/03/23 00:13:17;;;;;;;;;;;;;;;;;;351476;28;876;-72
2022/03/23 00:13:27;;;;;;;;;;;;;;;;;;351540;28;1001;-73
2022/03/23 00:13:38;;;;;;;;;;;;;;;;;;351528;28;936;-72
2022/03/23 00:13:48;;;;;;;;;;;;;;;;;;351507;28;956;-72
2022/03/23 00:13:58;;;;;;;;;;;;;;;;;;351497;28;790;-72
2022/03/23 00:14:09;;;;;;;;;;;;;;;;;;351473;28;905;-72
2022/03/23 00:14:19;;;;;;;;;;;;;;;;;;351498;28;921;-72
2022/03/23 00:14:30;;;;;;;;;;;;;;;;;;351520;28;845;-72
2022/03/23 00:14:40;;;;;;;;;;;;;;;;;;351464;28;948;-72
2022/03/23 00:14:50;;;;;;;;;;;;;;;;;;351509;28;986;-72
2022/03/23 00:15:00;;;;;;;;;;;;;;;;;;351155;28;1769;-72
2022/03/23 00:15:11;;;;;;;;;;;;;;;;;;350619;28;1359;-72
2022/03/23 00:15:22;;;;;;;;;;;;;;;;;;351435;27;1082;-72
2022/03/23 00:15:32;;;;;;;;;;;;;;;;;;351450;28;976;-72
2022/03/23 00:15:42;;;;;;;;;;;;;;;;;;350426;28;1783;-72
2022/03/23 00:15:54;;;;;;;;;;;;;;;;;;350035;28;1812;-72
2022/03/23 00:16:05;;;;;;;;;;;;;;;;;;350218;28;1728;-72
2022/03/23 00:16:16;;;;;;;;;;;;;;;;;;351466;28;1078;-72
2022/03/23 00:16:26;;;;;;;;;;;;;;;;;;351487;28;983;-72
2022/03/23 00:16:37;;;;;;;;;;;;;;;;;;351495;28;968;-72
2022/03/23 00:16:47;;;;;;;;;;;;;;;;;;351478;28;892;-72
2022/03/23 00:16:57;;;;;;;;;;;;;;;;;;354131;27;1348;-72
2022/03/23 00:17:07;;;;;;;;;;;;;;;;;;354228;27;833;-72
2022/03/23 00:17:18;;;;;;;;;;;;;;;;;;354167;27;920;-72
2022/03/23 00:17:28;;;;;;;;;;;;;;;;;;354224;27;969;-73
2022/03/23 00:17:39;;;;;;;;;;;;;;;;;;354860;27;1323;-72
2022/03/23 00:17:50;;;;;;;;;;;;;;;;;;355668;27;951;-72
2022/03/23 00:18:00;;;;;;;;;;;;;;;;;;355667;27;848;-72
2022/03/23 00:18:11;;;;;;;;;;;;;;;;;;355563;27;1007;-73
2022/03/23 00:18:22;;;;;;;;;;;;;;;;;;353708;27;1591;-72
2022/03/23 00:18:32;;;;;;;;;;;;;;;;;;353298;27;1760;-72
2022/03/23 00:18:42;;;;;;;;;;;;;;;;;;354233;27;905;-72
2022/03/23 00:18:53;;;;;;;;;;;;;;;;;;352911;27;1577;-72
2022/03/23 00:19:03;;;;;;;;;;;;;;;;;;350112;28;1024;-72
2022/03/23 00:19:14;;;;;;;;;;;;;;;;;;350828;28;1508;-72
2022/03/23 00:19:24;;;;;;;;;;;;;;;;;;351412;28;913;-72
2022/03/23 00:19:34;;;;;;;;;;;;;;;;;;351513;28;888;-72
2022/03/23 00:19:44;;;;;;;;;;;;;;;;;;351451;28;1059;-72
2022/03/23 00:19:54;;;;;;;;;;;;;;;;;;351513;28;976;-72
2022/03/23 00:20:05;;;;;;;;;;;;;;;;;;351480;28;1000;-73
2022/03/23 00:20:15;;;;;;;;;;;;;;;;;;351432;28;933;-73
2022/03/23 00:20:26;;;;;;;;;;;;;;;;;;351472;28;1058;-72
2022/03/23 00:20:36;;;;;;;;;;;;;;;;;;351503;28;976;-72
2022/03/23 00:20:46;;;;;;;;;;;;;;;;;;351347;28;1001;-73
2022/03/23 00:20:56;;;;;;;;;;;;;;;;;;351464;28;905;-73
2022/03/23 00:21:06;;;;;;;;;;;;;;;;;;350065;28;1698;-72
2022/03/23 00:21:16;;;;;;;;;;;;;;;;;;350043;28;1079;-73
2022/03/23 00:21:27;;;;;;;;;;;;;;;;;;350059;28;810;-73
2022/03/23 00:21:38;;;;;;;;;;;;;;;;;;350071;28;803;-72
2022/03/23 00:21:48;;;;;;;;;;;;;;;;;;350095;28;1004;-72
2022/03/23 00:21:59;;;;;;;;;;;;;;;;;;350099;28;937;-72
2022/03/23 00:22:09;;;;;;;;;;;;;;;;;;350129;28;849;-73
2022/03/23 00:22:20;;;;;;;;;;;;;;;;;;349997;28;1004;-72
2022/03/23 00:22:31;;;;;;;;;;;;;;;;;;350066;28;925;-72
2022/03/23 00:22:41;;;;;;;;;;;;;;;;;;350122;28;829;-72
2022/03/23 00:22:51;;;;;;;;;;;;;;;;;;350171;28;1035;-73
2022/03/23 00:23:02;;;;;;;;;;;;;;;;;;350534;28;1651;-72
2022/03/23 00:23:13;;;;;;;;;;;;;;;;;;350057;28;832;-73
2022/03/23 00:23:23;;;;;;;;;;;;;;;;;;350088;28;826;-73
2022/03/23 00:23:33;;;;;;;;;;;;;;;;;;350021;28;929;-72
2022/03/23 00:23:43;;;;;;;;;;;;;;;;;;350098;28;790;-72
2022/03/23 00:23:54;;;;;;;;;;;;;;;;;;350089;28;968;-73
2022/03/23 00:24:05;;;;;;;;;;;;;;;;;;350076;28;870;-72
2022/03/23 00:24:15;;;;;;;;;;;;;;;;;;350042;28;964;-72
2022/03/23 00:24:25;;;;;;;;;;;;;;;;;;350046;28;976;-72
2022/03/23 00:24:35;;;;;;;;;;;;;;;;;;349976;28;1000;-72
2022/03/23 00:24:45;;;;;;;;;;;;;;;;;;350089;28;860;-72
2022/03/23 00:24:56;;;;;;;;;;;;;;;;;;350034;28;913;-72
2022/03/23 00:25:07;;;;;;;;;;;;;;;;;;350528;28;1564;-72
2022/03/23 00:25:17;;;;;;;;;;;;;;;;;;351041;28;1764;-72
2022/03/23 00:25:28;;;;;;;;;;;;;;;;;;351393;28;1025;-73
2022/03/23 00:25:38;;;;;;;;;;;;;;;;;;351424;28;1022;-72
2022/03/23 00:25:49;;;;;;;;;;;;;;;;;;351466;28;884;-73
2022/03/23 00:25:59;;;;;;;;;;;;;;;;;;351485;28;778;-73
2022/03/23 00:26:12;;;;;;;;;;;;;;;;;;351501;28;814;-73
2022/03/23 00:26:22;;;;;;;;;;;;;;;;;;351447;28;948;-73
2022/03/23 00:26:33;;;;;;;;;;;;;;;;;;351470;28;1099;-72
2022/03/23 00:26:43;;;;;;;;;;;;;;;;;;351371;28;1004;-72
2022/03/23 00:26:53;;;;;;;;;;;;;;;;;;351506;28;921;-72
2022/03/23 00:27:03;;;;;;;;;;;;;;;;;;351008;28;1580;-72
2022/03/23 00:27:14;;;;;;;;;;;;;;;;;;350115;28;846;-72
2022/03/23 00:27:24;;;;;;;;;;;;;;;;;;350059;28;929;-72
2022/03/23 00:27:35;;;;;;;;;;;;;;;;;;350062;28;887;-72
2022/03/23 00:27:45;;;;;;;;;;;;;;;;;;350041;28;853;-72
2022/03/23 00:27:56;;;;;;;;;;;;;;;;;;350094;28;909;-72
2022/03/23 00:28:07;;;;;;;;;;;;;;;;;;350065;28;976;-72
2022/03/23 00:28:18;;;;;;;;;;;;;;;;;;349978;28;1235;-72
2022/03/23 00:28:28;;;;;;;;;;;;;;;;;;350081;28;772;-72
2022/03/23 00:28:38;;;;;;;;;;;;;;;;;;350085;28;889;-72
2022/03/23 00:28:48;;;;;;;;;;;;;;;;;;350033;28;926;-72
2022/03/23 00:28:59;;;;;;;;;;;;;;;;;;350038;28;1693;-72
2022/03/23 00:29:09;;;;;;;;;;;;;;;;;;350118;28;782;-72
2022/03/23 00:29:19;;;;;;;;;;;;;;;;;;350090;28;909;-72
2022/03/23 00:29:29;;;;;;;;;;;;;;;;;;350068;28;913;-72
2022/03/23 00:29:40;;;;;;;;;;;;;;;;;;349882;28;1000;-72
2022/03/23 00:29:50;;;;;;;;;;;;;;;;;;350036;28;988;-72
2022/03/23 00:30:01;;;;;;;;;;;;;;;;;;350101;28;774;-72
2022/03/23 00:30:11;;;;;;;;;;;;;;;;;;350119;28;964;-72
2022/03/23 00:30:21;;;;;;;;;;;;;;;;;;350022;28;893;-72
2022/03/23 00:30:32;;;;;;;;;;;;;;;;;;350080;28;913;-72
2022/03/23 00:30:43;;;;;;;;;;;;;;;;;;349931;28;1745;-72
2022/03/23 00:30:53;;;;;;;;;;;;;;;;;;350193;28;1721;-72
2022/03/23 00:31:03;;;;;;;;;;;;;;;;;;351106;28;1898;-72
2022/03/23 00:31:14;;;;;;;;;;;;;;;;;;349962;28;1034;-72
2022/03/23 00:31:24;;;;;;;;;;;;;;;;;;350048;28;852;-72
2022/03/23 00:31:35;;;;;;;;;;;;;;;;;;350066;28;964;-72
2022/03/23 00:31:45;;;;;;;;;;;;;;;;;;350028;28;1066;-72
2022/03/23 00:31:55;;;;;;;;;;;;;;;;;;350050;28;917;-72
2022/03/23 00:32:06;;;;;;;;;;;;;;;;;;350067;28;907;-72
2022/03/23 00:32:17;;;;;;;;;;;;;;;;;;350050;28;999;-72
2022/03/23 00:32:27;;;;;;;;;;;;;;;;;;350000;28;983;-72
2022/03/23 00:32:37;;;;;;;;;;;;;;;;;;350095;28;889;-71
2022/03/23 00:32:47;;;;;;;;;;;;;;;;;;350100;28;933;-72
2022/03/23 00:32:58;;;;;;;;;;;;;;;;;;350059;28;921;-72
2022/03/23 00:33:08;;;;;;;;;;;;;;;;;;350058;28;868;-73
2022/03/23 00:33:21;;;;;;;;;;;;;;;;;;350091;28;929;-72
2022/03/23 00:33:31;;;;;;;;;;;;;;;;;;349997;28;1031;-72
2022/03/23 00:33:41;;;;;;;;;;;;;;;;;;350028;28;937;-72
2022/03/23 00:33:54;;;;;;;;;;;;;;;;;;350067;28;905;-73
2022/03/23 00:34:04;;;;;;;;;;;;;;;;;;350030;28;984;-72
2022/03/23 00:34:14;;;;;;;;;;;;;;;;;;350039;28;905;-72
2022/03/23 00:34:24;;;;;;;;;;;;;;;;;;350108;28;794;-72
2022/03/23 00:34:35;;;;;;;;;;;;;;;;;;350010;28;1144;-72
2022/03/23 00:34:45;;;;;;;;;;;;;;;;;;350023;28;917;-72
2022/03/23 00:34:55;;;;;;;;;;;;;;;;;;349972;28;1039;-72
2022/03/23 00:35:05;;;;;;;;;;;;;;;;;;350077;28;922;-72
2022/03/23 00:35:16;;;;;;;;;;;;;;;;;;349978;28;1016;-72
2022/03/23 00:35:26;;;;;;;;;;;;;;;;;;350107;28;782;-72
2022/03/23 00:35:36;;;;;;;;;;;;;;;;;;350153;28;1672;-72
2022/03/23 00:35:47;;;;;;;;;;;;;;;;;;350280;28;1717;-73
2022/03/23 00:35:57;;;;;;;;;;;;;;;;;;350030;28;1081;-72
2022/03/23 00:36:09;;;;;;;;;;;;;;;;;;350041;28;918;-72
2022/03/23 00:36:20;;;;;;;;;;;;;;;;;;349983;28;944;-73
2022/03/23 00:36:30;;;;;;;;;;;;;;;;;;350054;28;1402;-72
2022/03/23 00:36:41;;;;;;;;;;;;;;;;;;350058;28;948;-72
2022/03/23 00:36:51;;;;;;;;;;;;;;;;;;350060;28;802;-73
2022/03/23 00:37:02;;;;;;;;;;;;;;;;;;350104;28;1640;-72
2022/03/23 00:37:13;;;;;;;;;;;;;;;;;;351061;28;1783;-72
2022/03/23 00:37:23;;;;;;;;;;;;;;;;;;351396;28;1250;-72
2022/03/23 00:37:34;;;;;;;;;;;;;;;;;;351449;28;766;-72
2022/03/23 00:37:44;;;;;;;;;;;;;;;;;;351367;28;1011;-72
2022/03/23 00:37:55;;;;;;;;;;;;;;;;;;351348;28;1121;-72
2022/03/23 00:38:05;;;;;;;;;;;;;;;;;;351366;28;948;-73
2022/03/23 00:38:17;;;;;;;;;;;;;;;;;;351360;28;998;-72
2022/03/23 00:38:27;;;;;;;;;;;;;;;;;;351473;28;972;-72
2022/03/23 00:38:38;;;;;;;;;;;;;;;;;;351456;28;871;-72
2022/03/23 00:38:50;;;;;;;;;;;;;;;;;;351438;28;790;-72
2022/03/23 00:39:00;;;;;;;;;;;;;;;;;;351386;28;1588;-71
2022/03/23 00:39:10;;;;;;;;;;;;;;;;;;350319;28;1796;-72
2022/03/23 00:39:22;;;;;;;;;;;;;;;;;;350070;28;936;-72
2022/03/23 00:39:32;;;;;;;;;;;;;;;;;;350043;28;963;-72
2022/03/23 00:39:42;;;;;;;;;;;;;;;;;;350019;28;976;-72
2022/03/23 00:39:52;;;;;;;;;;;;;;;;;;350084;28;1039;-72
2022/03/23 00:40:03;;;;;;;;;;;;;;;;;;350075;28;941;-72
2022/03/23 00:40:13;;;;;;;;;;;;;;;;;;349884;28;1218;-72
2022/03/23 00:40:28;;;;;;;;;;;;;;;;;;350082;28;901;-72
2022/03/23 00:40:38;;;;;;;;;;;;;;;;;;350024;28;1038;-72
2022/03/23 00:40:48;;;;;;;;;;;;;;;;;;349892;28;1007;-72
2022/03/23 00:40:59;;;;;;;;;;;;;;;;;;350092;28;838;-72
2022/03/23 00:41:09;;;;;;;;;;;;;;;;;;350069;28;900;-72
2022/03/23 00:41:20;;;;;;;;;;;;;;;;;;351227;28;1530;-72
2022/03/23 00:41:31;;;;;;;;;;;;;;;;;;351386;28;933;-72
2022/03/23 00:41:41;;;;;;;;;;;;;;;;;;351458;28;801;-72
2022/03/23 00:41:52;;;;;;;;;;;;;;;;;;351459;28;821;-72
2022/03/23 00:42:03;;;;;;;;;;;;;;;;;;351481;28;901;-72
2022/03/23 00:42:13;;;;;;;;;;;;;;;;;;351405;28;1335;-72
2022/03/23 00:42:23;;;;;;;;;;;;;;;;;;351450;28;996;-72
2022/03/23 00:42:33;;;;;;;;;;;;;;;;;;351359;28;1164;-72
2022/03/23 00:42:44;;;;;;;;;;;;;;;;;;351334;28;952;-72
2022/03/23 00:43:01;;;;;;;;;;;;;;;;;;351304;28;1067;-72
2022/03/23 00:43:11;;;;;;;;;;;;;;;;;;351320;28;948;-72
2022/03/23 00:43:21;;;;;;;;;;;;;;;;;;351343;28;929;-72
2022/03/23 00:43:32;;;;;;;;;;;;;;;;;;351442;28;810;-72
2022/03/23 00:43:42;;;;;;;;;;;;;;;;;;351340;28;961;-72
2022/03/23 00:43:52;;;;;;;;;;;;;;;;;;351320;28;904;-72
2022/03/23 00:44:03;;;;;;;;;;;;;;;;;;351352;28;932;-72
2022/03/23 00:44:13;;;;;;;;;;;;;;;;;;351258;28;1095;-72
2022/03/23 00:44:23;;;;;;;;;;;;;;;;;;351234;28;1633;-72
2022/03/23 00:44:33;;;;;;;;;;;;;;;;;;350067;28;1805;-72
2022/03/23 00:44:44;;;;;;;;;;;;;;;;;;349948;28;1074;-73
2022/03/23 00:44:54;;;;;;;;;;;;;;;;;;349981;28;1038;-72
2022/03/23 00:45:04;;;;;;;;;;;;;;;;;;350055;28;999;-72
2022/03/23 00:45:15;;;;;;;;;;;;;;;;;;350050;28;932;-72
2022/03/23 00:45:25;;;;;;;;;;;;;;;;;;350052;28;1808;-72
2022/03/23 00:45:36;;;;;;;;;;;;;;;;;;349955;28;1808;-72
2022/03/23 00:45:46;;;;;;;;;;;;;;;;;;351298;28;1722;-72
2022/03/23 00:45:56;;;;;;;;;;;;;;;;;;351469;28;920;-72
2022/03/23 00:46:06;;;;;;;;;;;;;;;;;;351473;28;797;-72
2022/03/23 00:46:17;;;;;;;;;;;;;;;;;;350942;28;1584;-72
2022/03/23 00:46:27;;;;;;;;;;;;;;;;;;349956;28;936;-73
2022/03/23 00:46:37;;;;;;;;;;;;;;;;;;350106;28;798;-72
2022/03/23 00:46:47;;;;;;;;;;;;;;;;;;350000;28;913;-72
2022/03/23 00:46:57;;;;;;;;;;;;;;;;;;349953;28;1132;-72
2022/03/23 00:47:08;;;;;;;;;;;;;;;;;;350044;28;906;-72
2022/03/23 00:47:18;;;;;;;;;;;;;;;;;;349994;28;929;-72
2022/03/23 00:47:29;;;;;;;;;;;;;;;;;;350044;28;976;-73
2022/03/23 00:47:40;;;;;;;;;;;;;;;;;;350069;28;913;-73
2022/03/23 00:47:51;;;;;;;;;;;;;;;;;;350023;28;941;-72
2022/03/23 00:48:02;;;;;;;;;;;;;;;;;;350087;28;896;-72
2022/03/23 00:48:12;;;;;;;;;;;;;;;;;;349991;28;920;-72
2022/03/23 00:48:22;;;;;;;;;;;;;;;;;;350040;28;975;-72
2022/03/23 00:48:32;;;;;;;;;;;;;;;;;;350060;28;830;-72
2022/03/23 00:48:43;;;;;;;;;;;;;;;;;;350053;28;921;-72
2022/03/23 00:48:53;;;;;;;;;;;;;;;;;;350063;28;897;-72
2022/03/23 00:49:04;;;;;;;;;;;;;;;;;;350377;28;1581;-72
2022/03/23 00:49:14;;;;;;;;;;;;;;;;;;351064;28;1400;-72
2022/03/23 00:49:24;;;;;;;;;;;;;;;;;;350512;28;1656;-72
2022/03/23 00:49:35;;;;;;;;;;;;;;;;;;350068;28;989;-73
2022/03/23 00:49:45;;;;;;;;;;;;;;;;;;350026;28;1812;-72
2022/03/23 00:49:55;;;;;;;;;;;;;;;;;;350089;28;1777;-72
2022/03/23 00:50:06;;;;;;;;;;;;;;;;;;351420;28;944;-72
2022/03/23 00:50:16;;;;;;;;;;;;;;;;;;351439;28;1019;-72
2022/03/23 00:50:26;;;;;;;;;;;;;;;;;;351465;28;920;-72
2022/03/23 00:50:36;;;;;;;;;;;;;;;;;;351382;28;976;-72
2022/03/23 00:50:47;;;;;;;;;;;;;;;;;;351429;28;877;-72
2022/03/23 00:50:57;;;;;;;;;;;;;;;;;;351374;28;934;-72
2022/03/23 00:51:08;;;;;;;;;;;;;;;;;;351301;27;1910;-72
2022/03/23 00:51:18;;;;;;;;;;;;;;;;;;350053;28;933;-72
2022/03/23 00:51:28;;;;;;;;;;;;;;;;;;351062;28;1596;-72
2022/03/23 00:51:39;;;;;;;;;;;;;;;;;;351424;28;829;-72
2022/03/23 00:51:53;;;;;;;;;;;;;;;;;;351446;28;1035;-72
2022/03/23 00:52:06;;;;;;;;;;;;;;;;;;351453;28;1011;-72
2022/03/23 00:52:16;;;;;;;;;;;;;;;;;;351449;28;801;-72
2022/03/23 00:52:27;;;;;;;;;;;;;;;;;;351436;28;909;-73
2022/03/23 00:52:37;;;;;;;;;;;;;;;;;;351362;28;924;-73
2022/03/23 00:52:47;;;;;;;;;;;;;;;;;;351435;28;777;-72
2022/03/23 00:52:58;;;;;;;;;;;;;;;;;;351431;28;984;-72
2022/03/23 00:53:08;;;;;;;;;;;;;;;;;;351342;28;1114;-72
2022/03/23 00:53:18;;;;;;;;;;;;;;;;;;351290;28;980;-72
2022/03/23 00:53:29;;;;;;;;;;;;;;;;;;351165;28;1533;-72
2022/03/23 00:53:40;;;;;;;;;;;;;;;;;;349952;28;1071;-72
2022/03/23 00:53:50;;;;;;;;;;;;;;;;;;350012;28;848;-72
2022/03/23 00:54:00;;;;;;;;;;;;;;;;;;349964;28;900;-72
2022/03/23 00:54:10;;;;;;;;;;;;;;;;;;350048;28;971;-72
2022/03/23 00:54:21;;;;;;;;;;;;;;;;;;350056;28;880;-72
2022/03/23 00:54:35;;;;;;;;;;;;;;;;;;350072;28;1023;-72
2022/03/23 00:54:45;;;;;;;;;;;;;;;;;;349983;28;884;-73
2022/03/23 00:54:55;;;;;;;;;;;;;;;;;;349970;28;1249;-72
2022/03/23 00:55:09;;;;;;;;;;;;;;;;;;350038;28;1015;-73
2022/03/23 00:55:19;;;;;;;;;;;;;;;;;;350008;28;876;-73
2022/03/23 00:55:30;;;;;;;;;;;;;;;;;;350525;28;1620;-72
2022/03/23 00:55:41;;;;;;;;;;;;;;;;;;349993;28;817;-73
2022/03/23 00:55:51;;;;;;;;;;;;;;;;;;350051;28;983;-72
2022/03/23 00:56:01;;;;;;;;;;;;;;;;;;349947;28;991;-72
2022/03/23 00:56:12;;;;;;;;;;;;;;;;;;350037;28;976;-72
2022/03/23 00:56:22;;;;;;;;;;;;;;;;;;350027;28;920;-72
2022/03/23 00:56:32;;;;;;;;;;;;;;;;;;350045;28;905;-73
2022/03/23 00:56:43;;;;;;;;;;;;;;;;;;349991;28;916;-72
2022/03/23 00:56:53;;;;;;;;;;;;;;;;;;349982;28;971;-73
2022/03/23 00:57:04;;;;;;;;;;;;;;;;;;350022;28;924;-72
2022/03/23 00:57:14;;;;;;;;;;;;;;;;;;349962;28;1027;-73
2022/03/23 00:57:25;;;;;;;;;;;;;;;;;;349994;28;964;-73
2022/03/23 00:57:35;;;;;;;;;;;;;;;;;;351100;28;1631;-72
2022/03/23 00:57:46;;;;;;;;;;;;;;;;;;351443;28;916;-72
2022/03/23 00:57:56;;;;;;;;;;;;;;;;;;351473;28;817;-72
2022/03/23 00:58:07;;;;;;;;;;;;;;;;;;351408;28;1019;-72
2022/03/23 00:58:17;;;;;;;;;;;;;;;;;;351243;28;1542;-73
2022/03/23 00:58:27;;;;;;;;;;;;;;;;;;351440;28;956;-72
2022/03/23 00:58:38;;;;;;;;;;;;;;;;;;351408;28;1619;-72
2022/03/23 00:58:48;;;;;;;;;;;;;;;;;;351046;28;1498;-72
2022/03/23 00:58:58;;;;;;;;;;;;;;;;;;349970;28;921;-72
2022/03/23 00:59:10;;;;;;;;;;;;;;;;;;350030;28;987;-72
2022/03/23 00:59:22;;;;;;;;;;;;;;;;;;350079;28;964;-72
2022/03/23 00:59:33;;;;;;;;;;;;;;;;;;350052;28;798;-73
2022/03/23 00:59:43;;;;;;;;;;;;;;;;;;349982;28;783;-72
2022/03/23 00:59:53;;;;;;;;;;;;;;;;;;350036;28;984;-72
2022/03/23 01:00:06;;;;;;;;;;;;;;;;;;349979;28;1043;-72
2022/03/23 01:00:17;;;;;;;;;;;;;;;;;;349991;28;1034;-73
2022/03/23 01:00:28;;;;;;;;;;;;;;;;;;349996;28;1012;-72
2022/03/23 01:00:41;;;;;;;;;;;;;;;;;;350004;28;960;-73
2022/03/23 01:00:51;;;;;;;;;;;;;;;;;;350457;28;1628;-72
2022/03/23 01:01:02;;;;;;;;;;;;;;;;;;349949;28;992;-72
2022/03/23 01:01:13;;;;;;;;;;;;;;;;;;349974;28;1003;-72
2022/03/23 01:01:24;;;;;;;;;;;;;;;;;;350036;28;916;-72
2022/03/23 01:01:34;;;;;;;;;;;;;;;;;;350053;28;920;-72
2022/03/23 01:01:45;;;;;;;;;;;;;;;;;;350045;28;988;-72
2022/03/23 01:01:55;;;;;;;;;;;;;;;;;;349992;28;1031;-72
2022/03/23 01:02:09;;;;;;;;;;;;;;;;;;349998;28;975;-72
2022/03/23 01:02:19;;;;;;;;;;;;;;;;;;350105;28;936;-72
2022/03/23 01:02:30;;;;;;;;;;;;;;;;;;350071;28;790;-72
2022/03/23 01:02:40;;;;;;;;;;;;;;;;;;349988;28;924;-73
2022/03/23 01:02:52;;;;;;;;;;;;;;;;;;350481;28;1710;-72
2022/03/23 01:03:02;;;;;;;;;;;;;;;;;;351383;28;979;-72
2022/03/23 01:03:13;;;;;;;;;;;;;;;;;;351416;28;864;-73
2022/03/23 01:03:23;;;;;;;;;;;;;;;;;;351425;28;900;-72
2022/03/23 01:03:33;;;;;;;;;;;;;;;;;;351401;28;995;-72
2022/03/23 01:03:43;;;;;;;;;;;;;;;;;;351409;28;829;-72
2022/03/23 01:03:54;;;;;;;;;;;;;;;;;;351437;28;896;-72
2022/03/23 01:04:04;;;;;;;;;;;;;;;;;;350555;28;1861;-72
2022/03/23 01:04:14;;;;;;;;;;;;;;;;;;350364;28;1807;-72
2022/03/23 01:04:25;;;;;;;;;;;;;;;;;;351401;28;876;-72
2022/03/23 01:04:36;;;;;;;;;;;;;;;;;;351462;28;913;-72
2022/03/23 01:04:46;;;;;;;;;;;;;;;;;;351359;28;1136;-72
2022/03/23 01:04:56;;;;;;;;;;;;;;;;;;351425;28;916;-72
2022/03/23 01:05:08;;;;;;;;;;;;;;;;;;351421;28;794;-72
2022/03/23 01:05:18;;;;;;;;;;;;;;;;;;351331;28;939;-73
2022/03/23 01:05:28;;;;;;;;;;;;;;;;;;351411;28;968;-72
2022/03/23 01:05:39;;;;;;;;;;;;;;;;;;351458;28;941;-72
2022/03/23 01:05:50;;;;;;;;;;;;;;;;;;351380;28;948;-72
2022/03/23 01:06:00;;;;;;;;;;;;;;;;;;351432;28;796;-72
2022/03/23 01:06:10;;;;;;;;;;;;;;;;;;351435;28;853;-72
2022/03/23 01:06:21;;;;;;;;;;;;;;;;;;351405;28;837;-73
2022/03/23 01:06:31;;;;;;;;;;;;;;;;;;350553;28;1692;-72
2022/03/23 01:06:42;;;;;;;;;;;;;;;;;;350035;28;936;-72
2022/03/23 01:06:52;;;;;;;;;;;;;;;;;;350011;28;872;-72
2022/03/23 01:07:03;;;;;;;;;;;;;;;;;;350057;28;925;-72
2022/03/23 01:07:13;;;;;;;;;;;;;;;;;;349994;28;853;-72
2022/03/23 01:07:23;;;;;;;;;;;;;;;;;;349957;28;917;-72
2022/03/23 01:07:34;;;;;;;;;;;;;;;;;;350044;28;905;-72
2022/03/23 01:07:46;;;;;;;;;;;;;;;;;;350022;28;889;-72
2022/03/23 01:07:57;;;;;;;;;;;;;;;;;;350008;28;1167;-72
2022/03/23 01:08:07;;;;;;;;;;;;;;;;;;349996;28;916;-73
2022/03/23 01:08:17;;;;;;;;;;;;;;;;;;349905;28;1018;-72
2022/03/23 01:08:27;;;;;;;;;;;;;;;;;;350742;28;1546;-72
2022/03/23 01:08:38;;;;;;;;;;;;;;;;;;351331;28;1022;-72
2022/03/23 01:08:48;;;;;;;;;;;;;;;;;;351429;28;814;-72
2022/03/23 01:08:58;;;;;;;;;;;;;;;;;;351388;28;935;-72
2022/03/23 01:09:08;;;;;;;;;;;;;;;;;;351458;28;794;-72
2022/03/23 01:09:23;;;;;;;;;;;;;;;;;;351316;28;980;-72
2022/03/23 01:09:33;;;;;;;;;;;;;;;;;;351382;28;1057;-72
2022/03/23 01:09:44;;;;;;;;;;;;;;;;;;351357;28;909;-73
2022/03/23 01:09:54;;;;;;;;;;;;;;;;;;351442;28;995;-73
2022/03/23 01:10:05;;;;;;;;;;;;;;;;;;351395;28;1115;-73
2022/03/23 01:10:15;;;;;;;;;;;;;;;;;;351375;28;858;-72
2022/03/23 01:10:27;;;;;;;;;;;;;;;;;;351336;28;897;-73
2022/03/23 01:10:37;;;;;;;;;;;;;;;;;;351180;28;1763;-72
2022/03/23 01:10:48;;;;;;;;;;;;;;;;;;351403;28;754;-72
2022/03/23 01:10:58;;;;;;;;;;;;;;;;;;351429;28;916;-72
2022/03/23 01:11:10;;;;;;;;;;;;;;;;;;351223;28;1981;-73
2022/03/23 01:11:20;;;;;;;;;;;;;;;;;;351372;28;975;-72
2022/03/23 01:11:31;;;;;;;;;;;;;;;;;;351347;28;924;-72
2022/03/23 01:11:41;;;;;;;;;;;;;;;;;;351441;28;916;-72
2022/03/23 01:11:53;;;;;;;;;;;;;;;;;;351390;28;845;-72
2022/03/23 01:12:03;;;;;;;;;;;;;;;;;;351448;28;920;-72
2022/03/23 01:12:14;;;;;;;;;;;;;;;;;;351433;28;932;-72
2022/03/23 01:12:24;;;;;;;;;;;;;;;;;;351409;28;936;-72
2022/03/23 01:12:34;;;;;;;;;;;;;;;;;;350913;28;1568;-72
2022/03/23 01:12:45;;;;;;;;;;;;;;;;;;350023;28;957;-72
2022/03/23 01:12:56;;;;;;;;;;;;;;;;;;350021;28;929;-73
2022/03/23 01:13:06;;;;;;;;;;;;;;;;;;349999;28;1059;-72
2022/03/23 01:13:17;;;;;;;;;;;;;;;;;;350027;28;943;-72
2022/03/23 01:13:27;;;;;;;;;;;;;;;;;;349988;28;928;-73
2022/03/23 01:13:37;;;;;;;;;;;;;;;;;;349996;28;884;-72
2022/03/23 01:13:47;;;;;;;;;;;;;;;;;;349987;28;1012;-72
2022/03/23 01:13:57;;;;;;;;;;;;;;;;;;350020;28;928;-72
2022/03/23 01:14:08;;;;;;;;;;;;;;;;;;349909;28;1293;-72
2022/03/23 01:14:18;;;;;;;;;;;;;;;;;;349931;28;968;-72
2022/03/23 01:14:29;;;;;;;;;;;;;;;;;;350042;28;980;-72
2022/03/23 01:14:39;;;;;;;;;;;;;;;;;;350031;28;846;-72
2022/03/23 01:14:49;;;;;;;;;;;;;;;;;;350036;28;941;-72
2022/03/23 01:14:59;;;;;;;;;;;;;;;;;;350036;28;766;-72
2022/03/23 01:15:11;;;;;;;;;;;;;;;;;;350581;28;1250;-72
2022/03/23 01:15:22;;;;;;;;;;;;;;;;;;351369;28;928;-72
2022/03/23 01:15:33;;;;;;;;;;;;;;;;;;351439;28;968;-72